Farley, New Mexico
Current Conditions -  °F | °C
As of 7:55 PM on Wednesday 22 Oct 2014 (Local Time) from KCAO Reporting Station
Clear Clear  
Wind Chill: 58°   Ceiling: Unl
Heat Index: 58°   Visibility: 10mi
Dew Point: 44°   Wind: 0mph
Humidity: 60%   Direction: NA
Pressure: 30.12"   Gusts: NA
Location:  36.316°N, 103.86°W
Report Text: KCAO 230155Z AUTO 00000KT 10SM CLR 14/07 A3012 RMK AO2 SLP160 T01440067
Loading
Personal Weather Stations






























Interactive Weather Map
Tropical Storm Tracking
New forecast layout! Learn more

10-Day Weather Forecast

Advertisements
Track Severe Weather on mobile